South Bound Brook, New Jersey
Current Conditions -  °F | °C
As of 6:53 AM on Monday 24 Nov 2014 (Local Time) from KSMQ Reporting Station
Overcast Overcast  
Wind Chill: 64°   Ceiling: 1800
Heat Index: 64°   Visibility: 10mi
Dew Point: 61°   Wind: 8mph
Humidity: 90%   Direction: 180°S
Pressure: 29.66"   Gusts: 20mph
Location:  40.55°N, 74.53°W
Report Text: KSMQ 241153Z AUTO 18007G17KT 10SM OVC018 18/16 A2966 RMK AO2 RAE28 SLP045 P0001 60049 70049 T01780161 10178 20061 53001
Loading
Personal Weather Stations






























Interactive Weather Map New forecast layout! Learn more

10-Day Weather Forecast

Advertisements
Track Severe Weather on mobile